sensor_id;sensor_type;location;lat;lon;timestamp;pressure;altitude;pressure_sealevel;temperature;humidity
77079;BME280;66004;55.096;38.760;2023-06-22T00:00:58;100361.75;;;10.62;66.57
77079;BME280;66004;55.096;38.760;2023-06-22T00:03:25;100365.91;;;10.65;66.89
77079;BME280;66004;55.096;38.760;2023-06-22T00:05:51;100366.41;;;10.67;66.72
77079;BME280;66004;55.096;38.760;2023-06-22T00:08:18;100377.81;;;10.62;66.76
77079;BME280;66004;55.096;38.760;2023-06-22T00:10:44;100354.34;;;10.40;66.61
77079;BME280;66004;55.096;38.760;2023-06-22T00:13:10;100379.50;;;10.45;66.56
77079;BME280;66004;55.096;38.760;2023-06-22T00:15:37;100370.06;;;10.32;66.61
77079;BME280;66004;55.096;38.760;2023-06-22T00:18:04;100379.09;;;10.21;66.62
77079;BME280;66004;55.096;38.760;2023-06-22T00:20:29;100380.25;;;10.11;66.71
77079;BME280;66004;55.096;38.760;2023-06-22T00:22:56;100384.84;;;9.98;67.00
77079;BME280;66004;55.096;38.760;2023-06-22T00:25:22;100381.22;;;9.89;66.90
77079;BME280;66004;55.096;38.760;2023-06-22T00:27:48;100376.41;;;9.81;67.09
77079;BME280;66004;55.096;38.760;2023-06-22T00:30:15;100382.03;;;9.81;67.12
77079;BME280;66004;55.096;38.760;2023-06-22T00:32:41;100384.34;;;9.79;67.30
77079;BME280;66004;55.096;38.760;2023-06-22T00:35:07;100378.34;;;9.71;67.31
77079;BME280;66004;55.096;38.760;2023-06-22T00:37:33;100384.97;;;9.75;67.35
77079;BME280;66004;55.096;38.760;2023-06-22T00:40:01;100382.34;;;9.79;67.41
77079;BME280;66004;55.096;38.760;2023-06-22T00:42:26;100364.81;;;9.73;67.37
77079;BME280;66004;55.096;38.760;2023-06-22T00:44:52;100379.72;;;9.83;67.56
77079;BME280;66004;55.096;38.760;2023-06-22T00:47:18;100378.56;;;9.84;67.54
77079;BME280;66004;55.096;38.760;2023-06-22T00:49:44;100370.78;;;9.81;67.75
77079;BME280;66004;55.096;38.760;2023-06-22T00:52:14;100375.75;;;9.84;67.61
77079;BME280;66004;55.096;38.760;2023-06-22T00:54:49;100381.38;;;9.84;67.61
77079;BME280;66004;55.096;38.760;2023-06-22T00:57:17;100382.03;;;9.81;67.79
77079;BME280;66004;55.096;38.760;2023-06-22T00:59:44;100381.38;;;9.84;67.80
77079;BME280;66004;55.096;38.760;2023-06-22T01:02:11;100386.31;;;9.87;67.74
77079;BME280;66004;55.096;38.760;2023-06-22T01:04:37;100382.38;;;9.88;67.81
77079;BME280;66004;55.096;38.760;2023-06-22T01:09:57;100394.13;;;9.90;67.80
77079;BME280;66004;55.096;38.760;2023-06-22T01:12:25;100379.06;;;9.86;67.94
77079;BME280;66004;55.096;38.760;2023-06-22T01:15:00;100392.28;;;9.94;67.97
77079;BME280;66004;55.096;38.760;2023-06-22T01:17:27;100401.22;;;9.96;67.95
77079;BME280;66004;55.096;38.760;2023-06-22T01:19:57;100381.22;;;9.89;67.85
77079;BME280;66004;55.096;38.760;2023-06-22T01:22:26;100408.53;;;9.97;68.24
77079;BME280;66004;55.096;38.760;2023-06-22T01:25:13;100407.03;;;10.00;67.99
77079;BME280;66004;55.096;38.760;2023-06-22T01:27:50;100401.41;;;10.00;68.00
77079;BME280;66004;55.096;38.760;2023-06-22T01:30:18;100398.91;;;9.98;67.81
77079;BME280;66004;55.096;38.760;2023-06-22T01:32:44;100409.50;;;10.01;67.88
77079;BME280;66004;55.096;38.760;2023-06-22T01:35:10;100411.19;;;10.02;67.93
77079;BME280;66004;55.096;38.760;2023-06-22T01:37:37;100399.44;;;10.00;67.88
77079;BME280;66004;55.096;38.760;2023-06-22T01:40:05;100410.50;;;10.05;67.66
77079;BME280;66004;55.096;38.760;2023-06-22T01:42:32;100403.25;;;10.04;67.60
77079;BME280;66004;55.096;38.760;2023-06-22T01:44:58;100399.25;;;10.05;67.76
77079;BME280;66004;55.096;38.760;2023-06-22T01:47:25;100398.63;;;10.08;67.98
77079;BME280;66004;55.096;38.760;2023-06-22T01:49:51;100402.75;;;10.11;67.55
77079;BME280;66004;55.096;38.760;2023-06-22T01:52:19;100402.91;;;10.14;67.57
77079;BME280;66004;55.096;38.760;2023-06-22T01:54:46;100416.34;;;10.18;66.95
77079;BME280;66004;55.096;38.760;2023-06-22T01:57:12;100411.22;;;10.20;67.46
77079;BME280;66004;55.096;38.760;2023-06-22T02:02:15;100406.75;;;10.27;66.96
77079;BME280;66004;55.096;38.760;2023-06-22T02:04:47;100410.09;;;10.38;66.77
77079;BME280;66004;55.096;38.760;2023-06-22T02:07:15;100402.13;;;10.49;66.47
77079;BME280;66004;55.096;38.760;2023-06-22T02:09:46;100397.34;;;10.67;65.99
77079;BME280;66004;55.096;38.760;2023-06-22T02:12:17;100388.06;;;10.93;65.71
77079;BME280;66004;55.096;38.760;2023-06-22T02:14:45;100398.06;;;11.20;64.95
77079;BME280;66004;55.096;38.760;2023-06-22T02:17:11;100393.22;;;11.38;64.83
77079;BME280;66004;55.096;38.760;2023-06-22T02:19:38;100390.66;;;11.54;64.39
77079;BME280;66004;55.096;38.760;2023-06-22T02:22:04;100383.16;;;11.66;63.92
77079;BME280;66004;55.096;38.760;2023-06-22T02:24:30;100369.00;;;11.75;63.45
77079;BME280;66004;55.096;38.760;2023-06-22T02:27:01;100397.53;;;12.03;63.03
77079;BME280;66004;55.096;38.760;2023-06-22T02:29:27;100393.16;;;12.15;63.09
77079;BME280;66004;55.096;38.760;2023-06-22T02:31:53;100396.75;;;12.24;62.60
77079;BME280;66004;55.096;38.760;2023-06-22T02:34:19;100400.81;;;12.35;62.67
77079;BME280;66004;55.096;38.760;2023-06-22T02:36:48;100397.59;;;12.45;62.48
77079;BME280;66004;55.096;38.760;2023-06-22T02:39:24;100394.53;;;12.51;62.29
77079;BME280;66004;55.096;38.760;2023-06-22T02:41:51;100413.94;;;12.73;62.34
77079;BME280;66004;55.096;38.760;2023-06-22T02:44:17;100404.13;;;12.92;62.01
77079;BME280;66004;55.096;38.760;2023-06-22T02:46:43;100402.78;;;13.10;61.91
77079;BME280;66004;55.096;38.760;2023-06-22T02:49:09;100401.44;;;13.29;61.64
77079;BME280;66004;55.096;38.760;2023-06-22T02:51:36;100399.38;;;13.50;60.92
77079;BME280;66004;55.096;38.760;2023-06-22T02:54:05;100389.72;;;13.63;60.39
77079;BME280;66004;55.096;38.760;2023-06-22T02:56:31;100380.53;;;13.67;60.47
77079;BME280;66004;55.096;38.760;2023-06-22T02:58:56;100404.81;;;13.80;60.95
77079;BME280;66004;55.096;38.760;2023-06-22T03:01:29;100394.69;;;13.79;60.71
77079;BME280;66004;55.096;38.760;2023-06-22T03:03:58;100397.53;;;13.79;60.73
77079;BME280;66004;55.096;38.760;2023-06-22T03:06:24;100405.53;;;13.77;60.98
77079;BME280;66004;55.096;38.760;2023-06-22T03:08:59;100391.63;;;13.72;60.87
77079;BME280;66004;55.096;38.760;2023-06-22T03:11:25;100389.25;;;13.74;60.75
77079;BME280;66004;55.096;38.760;2023-06-22T03:13:50;100387.59;;;13.73;61.40
77079;BME280;66004;55.096;38.760;2023-06-22T03:16:17;100381.94;;;13.73;60.94
77079;BME280;66004;55.096;38.760;2023-06-22T03:18:43;100376.06;;;13.78;60.99
77079;BME280;66004;55.096;38.760;2023-06-22T03:21:09;100361.34;;;13.72;61.12
77079;BME280;66004;55.096;38.760;2023-06-22T03:23:34;100368.50;;;13.82;61.01
77079;BME280;66004;55.096;38.760;2023-06-22T03:26:00;100370.41;;;13.90;61.14
77079;BME280;66004;55.096;38.760;2023-06-22T03:28:26;100380.66;;;14.07;60.82
77079;BME280;66004;55.096;38.760;2023-06-22T03:30:52;100377.09;;;14.23;60.27
77079;BME280;66004;55.096;38.760;2023-06-22T03:33:17;100369.41;;;14.35;60.61
77079;BME280;66004;55.096;38.760;2023-06-22T03:35:43;100379.84;;;14.47;60.04
77079;BME280;66004;55.096;38.760;2023-06-22T03:38:08;100372.19;;;14.60;60.16
77079;BME280;66004;55.096;38.760;2023-06-22T03:40:34;100376.31;;;14.78;59.18
77079;BME280;66004;55.096;38.760;2023-06-22T03:42:59;100374.63;;;14.90;59.14
77079;BME280;66004;55.096;38.760;2023-06-22T03:45:25;100368.19;;;15.05;58.07
77079;BME280;66004;55.096;38.760;2023-06-22T03:47:50;100361.25;;;15.18;57.92
77079;BME280;66004;55.096;38.760;2023-06-22T03:50:16;100360.44;;;15.34;57.10
77079;BME280;66004;55.096;38.760;2023-06-22T03:52:41;100341.88;;;15.52;56.32
77079;BME280;66004;55.096;38.760;2023-06-22T03:55:07;100366.31;;;16.24;54.55
77079;BME280;66004;55.096;38.760;2023-06-22T03:57:33;100361.94;;;17.05;53.03
77079;BME280;66004;55.096;38.760;2023-06-22T03:59:59;100348.47;;;17.94;51.28
77079;BME280;66004;55.096;38.760;2023-06-22T04:02:25;100372.47;;;19.18;48.48
77079;BME280;66004;55.096;38.760;2023-06-22T04:04:51;100370.66;;;20.47;45.78
77079;BME280;66004;55.096;38.760;2023-06-22T04:07:16;100363.59;;;21.04;44.49
77079;BME280;66004;55.096;38.760;2023-06-22T04:09:43;100365.75;;;21.64;43.17
77079;BME280;66004;55.096;38.760;2023-06-22T04:12:09;100351.81;;;22.09;41.22
77079;BME280;66004;55.096;38.760;2023-06-22T04:14:34;100357.97;;;21.86;41.86
77079;BME280;66004;55.096;38.760;2023-06-22T04:17:00;100368.63;;;21.61;41.77
77079;BME280;66004;55.096;38.760;2023-06-22T04:19:26;100362.81;;;21.14;42.89
77079;BME280;66004;55.096;38.760;2023-06-22T04:21:51;100367.47;;;20.59;43.40
77079;BME280;66004;55.096;38.760;2023-06-22T04:24:17;100356.66;;;20.20;43.84
77079;BME280;66004;55.096;38.760;2023-06-22T04:26:43;100357.00;;;20.08;43.60
77079;BME280;66004;55.096;38.760;2023-06-22T04:29:10;100353.25;;;19.97;42.89
77079;BME280;66004;55.096;38.760;2023-06-22T04:31:36;100351.09;;;19.87;43.12
77079;BME280;66004;55.096;38.760;2023-06-22T04:34:06;100349.50;;;19.93;43.02
77079;BME280;66004;55.096;38.760;2023-06-22T04:36:37;100340.31;;;20.17;42.58
77079;BME280;66004;55.096;38.760;2023-06-22T04:39:08;100346.06;;;20.25;42.13
77079;BME280;66004;55.096;38.760;2023-06-22T04:41:35;100345.78;;;20.44;42.17
77079;BME280;66004;55.096;38.760;2023-06-22T04:44:17;100344.69;;;20.67;41.59
77079;BME280;66004;55.096;38.760;2023-06-22T04:46:53;100339.66;;;20.46;41.87
77079;BME280;66004;55.096;38.760;2023-06-22T04:49:20;100344.47;;;20.31;42.24
77079;BME280;66004;55.096;38.760;2023-06-22T04:51:46;100344.81;;;20.18;42.52
77079;BME280;66004;55.096;38.760;2023-06-22T04:54:11;100344.34;;;20.09;42.48
77079;BME280;66004;55.096;38.760;2023-06-22T04:56:37;100353.25;;;20.04;42.33
77079;BME280;66004;55.096;38.760;2023-06-22T04:59:06;100347.16;;;20.06;41.85
77079;BME280;66004;55.096;38.760;2023-06-22T05:01:31;100335.88;;;20.23;41.44
77079;BME280;66004;55.096;38.760;2023-06-22T05:03:57;100350.22;;;20.41;41.62
77079;BME280;66004;55.096;38.760;2023-06-22T05:06:26;100348.69;;;20.58;40.83
77079;BME280;66004;55.096;38.760;2023-06-22T05:08:56;100344.72;;;20.74;40.66
77079;BME280;66004;55.096;38.760;2023-06-22T05:11:26;100339.84;;;20.92;40.01
77079;BME280;66004;55.096;38.760;2023-06-22T05:13:51;100336.22;;;21.03;40.31
77079;BME280;66004;55.096;38.760;2023-06-22T05:16:17;100346.44;;;21.14;40.35
77079;BME280;66004;55.096;38.760;2023-06-22T05:18:45;100338.28;;;21.20;40.67
77079;BME280;66004;55.096;38.760;2023-06-22T05:21:10;100334.19;;;21.14;40.86
77079;BME280;66004;55.096;38.760;2023-06-22T05:23:36;100335.84;;;21.18;40.85
77079;BME280;66004;55.096;38.760;2023-06-22T05:26:01;100339.09;;;21.17;40.65
77079;BME280;66004;55.096;38.760;2023-06-22T05:28:27;100336.63;;;21.05;41.12
77079;BME280;66004;55.096;38.760;2023-06-22T05:30:52;100330.06;;;20.93;40.99
77079;BME280;66004;55.096;38.760;2023-06-22T05:33:18;100331.69;;;20.87;41.28
77079;BME280;66004;55.096;38.760;2023-06-22T05:35:43;100328.00;;;20.90;41.53
77079;BME280;66004;55.096;38.760;2023-06-22T05:38:09;100317.78;;;20.89;41.39
77079;BME280;66004;55.096;38.760;2023-06-22T05:40:34;100324.78;;;21.13;41.21
77079;BME280;66004;55.096;38.760;2023-06-22T05:43:00;100321.13;;;21.27;41.21
77079;BME280;66004;55.096;38.760;2023-06-22T05:45:27;100318.28;;;21.42;40.50
77079;BME280;66004;55.096;38.760;2023-06-22T05:47:52;100321.19;;;21.56;40.47
77079;BME280;66004;55.096;38.760;2023-06-22T05:50:18;100325.25;;;21.69;40.46
77079;BME280;66004;55.096;38.760;2023-06-22T05:52:43;100313.81;;;21.76;39.71
77079;BME280;66004;55.096;38.760;2023-06-22T05:55:09;100322.81;;;21.86;39.56
77079;BME280;66004;55.096;38.760;2023-06-22T05:57:34;100324.00;;;22.06;39.26
77079;BME280;66004;55.096;38.760;2023-06-22T06:00:00;100319.47;;;22.12;38.54
77079;BME280;66004;55.096;38.760;2023-06-22T06:02:25;100314.56;;;22.09;38.83
77079;BME280;66004;55.096;38.760;2023-06-22T06:04:58;100317.81;;;22.15;38.25
77079;BME280;66004;55.096;38.760;2023-06-22T06:07:23;100318.66;;;22.15;38.26
77079;BME280;66004;55.096;38.760;2023-06-22T06:09:49;100317.81;;;22.19;38.27
77079;BME280;66004;55.096;38.760;2023-06-22T06:12:14;100320.34;;;22.02;38.47
77079;BME280;66004;55.096;38.760;2023-06-22T06:14:40;100322.34;;;22.02;38.92
77079;BME280;66004;55.096;38.760;2023-06-22T06:17:05;100315.81;;;22.12;38.48
77079;BME280;66004;55.096;38.760;2023-06-22T06:19:31;100303.09;;;22.09;38.13
77079;BME280;66004;55.096;38.760;2023-06-22T06:21:56;100297.75;;;22.19;37.75
77079;BME280;66004;55.096;38.760;2023-06-22T06:24:22;100305.47;;;22.43;37.36
77079;BME280;66004;55.096;38.760;2023-06-22T06:26:47;100299.69;;;22.65;37.45
77079;BME280;66004;55.096;38.760;2023-06-22T06:29:13;100308.28;;;22.65;37.26
77079;BME280;66004;55.096;38.760;2023-06-22T06:31:41;100303.72;;;22.74;37.34
77079;BME280;66004;55.096;38.760;2023-06-22T06:34:07;100304.41;;;23.04;37.09
77079;BME280;66004;55.096;38.760;2023-06-22T06:36:35;100302.19;;;23.29;36.38
77079;BME280;66004;55.096;38.760;2023-06-22T06:39:01;100306.66;;;23.38;36.26
77079;BME280;66004;55.096;38.760;2023-06-22T06:41:28;100304.44;;;23.52;35.79
77079;BME280;66004;55.096;38.760;2023-06-22T06:43:54;100301.44;;;23.70;34.84
77079;BME280;66004;55.096;38.760;2023-06-22T06:46:22;100305.47;;;23.77;34.17
77079;BME280;66004;55.096;38.760;2023-06-22T06:48:48;100310.75;;;23.85;33.60
77079;BME280;66004;55.096;38.760;2023-06-22T06:51:13;100298.25;;;24.03;34.16
77079;BME280;66004;55.096;38.760;2023-06-22T06:53:39;100295.81;;;24.39;33.03
77079;BME280;66004;55.096;38.760;2023-06-22T06:56:04;100296.41;;;24.58;32.28
77079;BME280;66004;55.096;38.760;2023-06-22T06:58:31;100282.31;;;24.67;32.26
77079;BME280;66004;55.096;38.760;2023-06-22T07:00:56;100290.31;;;24.86;31.86
77079;BME280;66004;55.096;38.760;2023-06-22T07:03:22;100285.41;;;24.83;32.59
77079;BME280;66004;55.096;38.760;2023-06-22T07:05:47;100293.03;;;24.66;32.27
77079;BME280;66004;55.096;38.760;2023-06-22T07:08:13;100294.25;;;24.31;32.73
77079;BME280;66004;55.096;38.760;2023-06-22T07:10:38;100290.75;;;24.51;33.20
77079;BME280;66004;55.096;38.760;2023-06-22T07:13:04;100286.69;;;24.79;32.63
77079;BME280;66004;55.096;38.760;2023-06-22T07:15:29;100294.38;;;24.89;33.00
77079;BME280;66004;55.096;38.760;2023-06-22T07:17:55;100290.97;;;24.98;33.20
77079;BME280;66004;55.096;38.760;2023-06-22T07:20:20;100296.06;;;25.14;32.57
77079;BME280;66004;55.096;38.760;2023-06-22T07:22:46;100298.94;;;25.14;31.76
77079;BME280;66004;55.096;38.760;2023-06-22T07:25:11;100300.31;;;25.05;31.67
77079;BME280;66004;55.096;38.760;2023-06-22T07:27:44;100294.97;;;25.04;32.13
77079;BME280;66004;55.096;38.760;2023-06-22T07:30:10;100298.81;;;24.94;32.30
77079;BME280;66004;55.096;38.760;2023-06-22T07:32:36;100288.19;;;24.60;31.98
77079;BME280;66004;55.096;38.760;2023-06-22T07:35:08;100282.28;;;24.36;31.91
77079;BME280;66004;55.096;38.760;2023-06-22T07:37:34;100279.81;;;24.38;32.79
77079;BME280;66004;55.096;38.760;2023-06-22T07:40:00;100281.03;;;24.37;33.35
77079;BME280;66004;55.096;38.760;2023-06-22T07:42:26;100272.81;;;24.39;32.51
77079;BME280;66004;55.096;38.760;2023-06-22T07:44:53;100270.22;;;24.48;32.09
77079;BME280;66004;55.096;38.760;2023-06-22T07:47:19;100267.44;;;24.76;31.96
77079;BME280;66004;55.096;38.760;2023-06-22T07:49:46;100271.66;;;24.95;31.74
77079;BME280;66004;55.096;38.760;2023-06-22T07:52:11;100265.88;;;25.25;31.81
77079;BME280;66004;55.096;38.760;2023-06-22T07:54:38;100262.13;;;25.52;30.58
77079;BME280;66004;55.096;38.760;2023-06-22T07:57:03;100266.84;;;25.66;31.10
77079;BME280;66004;55.096;38.760;2023-06-22T07:59:30;100270.41;;;25.74;31.27
77079;BME280;66004;55.096;38.760;2023-06-22T08:01:55;100264.16;;;25.79;30.71
77079;BME280;66004;55.096;38.760;2023-06-22T08:04:21;100265.75;;;25.80;30.91
77079;BME280;66004;55.096;38.760;2023-06-22T08:06:46;100263.91;;;25.70;30.30
77079;BME280;66004;55.096;38.760;2023-06-22T08:09:12;100261.09;;;25.66;30.47
77079;BME280;66004;55.096;38.760;2023-06-22T08:11:37;100256.63;;;25.61;30.15
77079;BME280;66004;55.096;38.760;2023-06-22T08:14:03;100262.66;;;25.47;29.64
77079;BME280;66004;55.096;38.760;2023-06-22T08:16:28;100259.25;;;25.29;30.61
77079;BME280;66004;55.096;38.760;2023-06-22T08:18:54;100234.78;;;25.13;30.40
77079;BME280;66004;55.096;38.760;2023-06-22T08:21:20;100254.34;;;25.25;30.74
77079;BME280;66004;55.096;38.760;2023-06-22T08:23:48;100256.75;;;25.31;30.64
77079;BME280;66004;55.096;38.760;2023-06-22T08:26:14;100249.47;;;25.22;30.87
77079;BME280;66004;55.096;38.760;2023-06-22T08:28:40;100236.41;;;25.14;30.80
77079;BME280;66004;55.096;38.760;2023-06-22T08:31:05;100250.31;;;25.19;31.30
77079;BME280;66004;55.096;38.760;2023-06-22T08:33:31;100258.50;;;25.24;30.78
77079;BME280;66004;55.096;38.760;2023-06-22T08:35:58;100261.50;;;25.41;30.30
77079;BME280;66004;55.096;38.760;2023-06-22T08:38:24;100246.88;;;25.32;29.43
77079;BME280;66004;55.096;38.760;2023-06-22T08:40:50;100257.59;;;25.28;29.36
77079;BME280;66004;55.096;38.760;2023-06-22T08:43:15;100257.06;;;25.09;29.64
77079;BME280;66004;55.096;38.760;2023-06-22T08:45:41;100245.97;;;24.80;29.94
77079;BME280;66004;55.096;38.760;2023-06-22T08:48:06;100231.53;;;24.57;30.21
77079;BME280;66004;55.096;38.760;2023-06-22T08:50:32;100228.28;;;24.55;30.89
77079;BME280;66004;55.096;38.760;2023-06-22T08:52:57;100214.03;;;24.40;31.80
77079;BME280;66004;55.096;38.760;2023-06-22T08:55:23;100241.56;;;24.41;31.21
77079;BME280;66004;55.096;38.760;2023-06-22T08:57:48;100232.66;;;24.63;31.78
77079;BME280;66004;55.096;38.760;2023-06-22T09:00:14;100239.25;;;24.91;31.51
77079;BME280;66004;55.096;38.760;2023-06-22T09:02:44;100231.75;;;24.97;30.65
77079;BME280;66004;55.096;38.760;2023-06-22T09:05:10;100229.91;;;25.10;30.84
77079;BME280;66004;55.096;38.760;2023-06-22T09:07:36;100229.31;;;25.22;31.55
77079;BME280;66004;55.096;38.760;2023-06-22T09:10:02;100228.69;;;25.35;30.85
77079;BME280;66004;55.096;38.760;2023-06-22T09:12:30;100224.59;;;25.36;30.50
77079;BME280;66004;55.096;38.760;2023-06-22T09:14:55;100229.00;;;25.40;30.43
77079;BME280;66004;55.096;38.760;2023-06-22T09:17:22;100231.09;;;25.40;30.47
77079;BME280;66004;55.096;38.760;2023-06-22T09:19:47;100223.94;;;25.24;30.30
77079;BME280;66004;55.096;38.760;2023-06-22T09:22:14;100228.66;;;25.11;30.22
77079;BME280;66004;55.096;38.760;2023-06-22T09:24:39;100218.88;;;25.05;30.82
77079;BME280;66004;55.096;38.760;2023-06-22T09:27:05;100228.34;;;25.05;30.60
77079;BME280;66004;55.096;38.760;2023-06-22T09:29:31;100224.50;;;24.89;30.10
77079;BME280;66004;55.096;38.760;2023-06-22T09:31:59;100213.66;;;24.69;30.36
77079;BME280;66004;55.096;38.760;2023-06-22T09:34:25;100218.28;;;24.63;30.85
77079;BME280;66004;55.096;38.760;2023-06-22T09:36:50;100207.63;;;24.60;30.90
77079;BME280;66004;55.096;38.760;2023-06-22T09:39:18;100197.00;;;24.57;30.72
77079;BME280;66004;55.096;38.760;2023-06-22T09:41:44;100206.78;;;24.63;30.93
77079;BME280;66004;55.096;38.760;2023-06-22T09:44:09;100206.72;;;24.66;30.43
77079;BME280;66004;55.096;38.760;2023-06-22T09:46:35;100194.63;;;24.48;30.50
77079;BME280;66004;55.096;38.760;2023-06-22T09:49:00;100200.53;;;24.37;31.03
77079;BME280;66004;55.096;38.760;2023-06-22T09:51:26;100190.28;;;24.36;31.29
77079;BME280;66004;55.096;38.760;2023-06-22T09:53:52;100184.44;;;24.43;31.08
77079;BME280;66004;55.096;38.760;2023-06-22T09:56:19;100181.06;;;24.48;31.13
77079;BME280;66004;55.096;38.760;2023-06-22T09:58:46;100170.81;;;24.47;31.21
77079;BME280;66004;55.096;38.760;2023-06-22T10:01:12;100167.03;;;24.54;30.98
77079;BME280;66004;55.096;38.760;2023-06-22T10:03:39;100176.78;;;24.64;30.90
77079;BME280;66004;55.096;38.760;2023-06-22T10:06:06;100162.00;;;24.62;31.22
77079;BME280;66004;55.096;38.760;2023-06-22T10:08:32;100167.25;;;24.67;31.00
77079;BME280;66004;55.096;38.760;2023-06-22T10:10:58;100167.16;;;24.74;31.21
77079;BME280;66004;55.096;38.760;2023-06-22T10:13:23;100161.41;;;24.74;30.97
77079;BME280;66004;55.096;38.760;2023-06-22T10:15:49;100157.34;;;24.72;30.72
77079;BME280;66004;55.096;38.760;2023-06-22T10:18:17;100159.72;;;24.77;31.16
77079;BME280;66004;55.096;38.760;2023-06-22T10:20:43;100171.56;;;25.06;30.40
77079;BME280;66004;55.096;38.760;2023-06-22T10:23:08;100167.84;;;25.33;30.62
77079;BME280;66004;55.096;38.760;2023-06-22T10:25:34;100157.69;;;25.48;30.52
77079;BME280;66004;55.096;38.760;2023-06-22T10:27:59;100138.94;;;25.40;30.80
77079;BME280;66004;55.096;38.760;2023-06-22T10:30:25;100127.28;;;25.47;30.66
77079;BME280;66004;55.096;38.760;2023-06-22T10:32:50;100145.28;;;25.51;30.36
77079;BME280;66004;55.096;38.760;2023-06-22T10:35:16;100135.06;;;25.27;29.97
77079;BME280;66004;55.096;38.760;2023-06-22T10:37:43;100132.03;;;25.10;30.15
77079;BME280;66004;55.096;38.760;2023-06-22T10:40:09;100138.16;;;24.89;30.86
77079;BME280;66004;55.096;38.760;2023-06-22T10:42:34;100136.16;;;24.85;30.24
77079;BME280;66004;55.096;38.760;2023-06-22T10:45:00;100129.31;;;24.99;30.43
77079;BME280;66004;55.096;38.760;2023-06-22T10:47:26;100109.88;;;25.07;30.73
77079;BME280;66004;55.096;38.760;2023-06-22T10:49:51;100136.66;;;25.28;30.00
77079;BME280;66004;55.096;38.760;2023-06-22T10:52:17;100136.59;;;25.31;30.29
77079;BME280;66004;55.096;38.760;2023-06-22T10:54:42;100136.41;;;25.42;30.36
77079;BME280;66004;55.096;38.760;2023-06-22T10:57:08;100146.78;;;25.59;29.43
77079;BME280;66004;55.096;38.760;2023-06-22T10:59:33;100132.91;;;25.74;29.54
77079;BME280;66004;55.096;38.760;2023-06-22T11:01:59;100131.41;;;25.86;28.66
77079;BME280;66004;55.096;38.760;2023-06-22T11:04:25;100123.44;;;25.74;28.18
77079;BME280;66004;55.096;38.760;2023-06-22T11:06:51;100117.81;;;25.67;27.97
77079;BME280;66004;55.096;38.760;2023-06-22T11:09:17;100118.25;;;25.45;28.40
77079;BME280;66004;55.096;38.760;2023-06-22T11:11:48;100124.41;;;25.23;28.23
77079;BME280;66004;55.096;38.760;2023-06-22T11:14:14;100113.16;;;25.09;28.67
77079;BME280;66004;55.096;38.760;2023-06-22T11:16:40;100115.63;;;25.07;28.88
77079;BME280;66004;55.096;38.760;2023-06-22T11:19:06;100096.63;;;25.13;28.56
77079;BME280;66004;55.096;38.760;2023-06-22T11:21:32;100114.78;;;25.34;28.44
77079;BME280;66004;55.096;38.760;2023-06-22T11:23:58;100102.72;;;25.39;28.80
77079;BME280;66004;55.096;38.760;2023-06-22T11:26:24;100109.56;;;25.49;28.15
77079;BME280;66004;55.096;38.760;2023-06-22T11:28:50;100112.63;;;25.38;28.64
77079;BME280;66004;55.096;38.760;2023-06-22T11:31:15;100126.78;;;25.29;28.84
77079;BME280;66004;55.096;38.760;2023-06-22T11:33:41;100109.00;;;25.10;29.38
77079;BME280;66004;55.096;38.760;2023-06-22T11:36:06;100104.88;;;25.11;29.51
77079;BME280;66004;55.096;38.760;2023-06-22T11:38:32;100102.88;;;25.08;29.96
77079;BME280;66004;55.096;38.760;2023-06-22T11:40:58;100103.69;;;25.32;30.31
77079;BME280;66004;55.096;38.760;2023-06-22T11:43:33;100100.63;;;25.43;30.59
77079;BME280;66004;55.096;38.760;2023-06-22T11:45:59;100114.84;;;25.50;29.54
77079;BME280;66004;55.096;38.760;2023-06-22T11:48:25;100109.03;;;25.54;29.66
77079;BME280;66004;55.096;38.760;2023-06-22T11:50:51;100093.91;;;25.70;29.36
77079;BME280;66004;55.096;38.760;2023-06-22T11:53:16;100105.13;;;25.84;29.43
77079;BME280;66004;55.096;38.760;2023-06-22T11:55:43;100099.97;;;25.95;28.73
77079;BME280;66004;55.096;38.760;2023-06-22T11:58:09;100091.28;;;26.15;28.64
77079;BME280;66004;55.096;38.760;2023-06-22T12:00:35;100099.25;;;26.28;28.14
77079;BME280;66004;55.096;38.760;2023-06-22T12:03:00;100089.66;;;26.14;27.67
77079;BME280;66004;55.096;38.760;2023-06-22T12:05:26;100083.16;;;26.10;27.81
77079;BME280;66004;55.096;38.760;2023-06-22T12:07:55;100070.25;;;25.98;28.15
77079;BME280;66004;55.096;38.760;2023-06-22T12:10:25;100079.19;;;26.04;29.02
77079;BME280;66004;55.096;38.760;2023-06-22T12:12:51;100086.50;;;26.09;29.02
77079;BME280;66004;55.096;38.760;2023-06-22T12:15:16;100076.59;;;26.10;28.75
77079;BME280;66004;55.096;38.760;2023-06-22T12:17:42;100070.91;;;26.06;28.58
77079;BME280;66004;55.096;38.760;2023-06-22T12:20:08;100073.34;;;26.08;28.96
77079;BME280;66004;55.096;38.760;2023-06-22T12:22:34;100068.31;;;26.12;29.41
77079;BME280;66004;55.096;38.760;2023-06-22T12:25:00;100064.53;;;26.15;29.04
77079;BME280;66004;55.096;38.760;2023-06-22T12:27:26;100062.75;;;26.21;29.68
77079;BME280;66004;55.096;38.760;2023-06-22T12:29:55;100065.81;;;26.30;29.01
77079;BME280;66004;55.096;38.760;2023-06-22T12:32:20;100059.53;;;26.35;28.97
77079;BME280;66004;55.096;38.760;2023-06-22T12:34:46;100060.97;;;26.44;28.39
77079;BME280;66004;55.096;38.760;2023-06-22T12:37:11;100062.56;;;26.45;28.68
77079;BME280;66004;55.096;38.760;2023-06-22T12:39:39;100049.44;;;26.44;28.24
77079;BME280;66004;55.096;38.760;2023-06-22T12:42:04;100050.03;;;26.35;28.61